sensor_id;sensor_type;location;lat;lon;timestamp;pressure;altitude;pressure_sealevel;temperature;humidity
20710;BME280;10516;51.518;9.864;2023-08-17T00:01:57;99077.06;;;17.75;99.17
20710;BME280;10516;51.518;9.864;2023-08-17T00:04:22;99082.66;;;17.79;99.78
20710;BME280;10516;51.518;9.864;2023-08-17T00:06:48;99079.13;;;18.21;97.59
20710;BME280;10516;51.518;9.864;2023-08-17T00:09:13;99063.13;;;18.06;97.56
20710;BME280;10516;51.518;9.864;2023-08-17T00:11:39;99069.63;;;18.42;96.29
20710;BME280;10516;51.518;9.864;2023-08-17T00:14:05;99075.56;;;18.25;96.86
20710;BME280;10516;51.518;9.864;2023-08-17T00:16:30;99072.25;;;18.28;96.45
20710;BME280;10516;51.518;9.864;2023-08-17T00:18:56;99067.72;;;18.42;95.71
20710;BME280;10516;51.518;9.864;2023-08-17T00:21:22;99069.47;;;19.16;91.69
20710;BME280;10516;51.518;9.864;2023-08-17T00:23:47;99071.44;;;18.97;91.90
20710;BME280;10516;51.518;9.864;2023-08-17T00:26:13;99064.09;;;18.84;93.11
20710;BME280;10516;51.518;9.864;2023-08-17T00:28:39;99062.91;;;18.58;95.12
20710;BME280;10516;51.518;9.864;2023-08-17T00:31:05;99061.97;;;18.30;96.69
20710;BME280;10516;51.518;9.864;2023-08-17T00:33:30;99042.13;;;18.21;97.17
20710;BME280;10516;51.518;9.864;2023-08-17T00:35:55;99030.13;;;18.27;96.95
20710;BME280;10516;51.518;9.864;2023-08-17T00:38:21;99060.91;;;18.50;96.84
20710;BME280;10516;51.518;9.864;2023-08-17T00:40:46;99053.19;;;18.38;97.14
20710;BME280;10516;51.518;9.864;2023-08-17T00:43:12;99041.00;;;18.22;98.11
20710;BME280;10516;51.518;9.864;2023-08-17T00:45:37;99036.34;;;17.90;99.88
20710;BME280;10516;51.518;9.864;2023-08-17T00:48:03;99040.94;;;18.09;100.00
20710;BME280;10516;51.518;9.864;2023-08-17T00:50:32;99009.69;;;18.03;99.29
20710;BME280;10516;51.518;9.864;2023-08-17T00:52:59;99038.91;;;18.70;96.11
20710;BME280;10516;51.518;9.864;2023-08-17T00:55:24;99025.72;;;18.82;94.47
20710;BME280;10516;51.518;9.864;2023-08-17T00:57:51;99019.72;;;18.85;93.39
20710;BME280;10516;51.518;9.864;2023-08-17T01:00:18;99005.78;;;18.78;93.64
20710;BME280;10516;51.518;9.864;2023-08-17T01:02:44;99017.97;;;18.62;94.81
20710;BME280;10516;51.518;9.864;2023-08-17T01:05:09;99007.91;;;18.49;96.19
20710;BME280;10516;51.518;9.864;2023-08-17T01:07:35;99016.44;;;18.56;96.27
20710;BME280;10516;51.518;9.864;2023-08-17T01:10:01;99003.94;;;18.41;96.59
20710;BME280;10516;51.518;9.864;2023-08-17T01:17:26;99009.66;;;18.58;95.97
20710;BME280;10516;51.518;9.864;2023-08-17T01:19:55;99005.75;;;18.64;96.21
20710;BME280;10516;51.518;9.864;2023-08-17T01:22:24;99002.47;;;18.81;94.07
20710;BME280;10516;51.518;9.864;2023-08-17T01:24:54;98991.94;;;18.66;95.38
20710;BME280;10516;51.518;9.864;2023-08-17T01:27:23;98994.88;;;18.97;94.36
20710;BME280;10516;51.518;9.864;2023-08-17T01:29:48;98995.31;;;19.17;91.65
20710;BME280;10516;51.518;9.864;2023-08-17T01:32:37;98988.59;;;19.28;91.29
20710;BME280;10516;51.518;9.864;2023-08-17T01:35:11;98996.81;;;19.10;92.26
20710;BME280;10516;51.518;9.864;2023-08-17T01:37:40;98987.16;;;18.90;93.62
20710;BME280;10516;51.518;9.864;2023-08-17T01:40:08;98988.56;;;18.88;93.04
20710;BME280;10516;51.518;9.864;2023-08-17T01:42:35;98981.78;;;19.04;92.55
20710;BME280;10516;51.518;9.864;2023-08-17T01:45:01;98982.78;;;19.21;91.85
20710;BME280;10516;51.518;9.864;2023-08-17T01:47:27;98959.41;;;19.25;89.86
20710;BME280;10516;51.518;9.864;2023-08-17T01:49:52;98973.22;;;19.78;87.14
20710;BME280;10516;51.518;9.864;2023-08-17T01:52:17;98987.28;;;20.02;86.17
20710;BME280;10516;51.518;9.864;2023-08-17T01:54:43;98987.50;;;19.92;86.72
20710;BME280;10516;51.518;9.864;2023-08-17T01:57:08;98970.00;;;19.76;86.90
20710;BME280;10516;51.518;9.864;2023-08-17T01:59:34;98982.63;;;19.81;86.82
20710;BME280;10516;51.518;9.864;2023-08-17T02:01:59;98995.63;;;19.92;86.10
20710;BME280;10516;51.518;9.864;2023-08-17T02:04:25;98985.97;;;20.00;85.62
20710;BME280;10516;51.518;9.864;2023-08-17T02:06:50;98999.97;;;19.80;87.10
20710;BME280;10516;51.518;9.864;2023-08-17T02:09:16;98972.22;;;19.74;86.82
20710;BME280;10516;51.518;9.864;2023-08-17T02:11:41;98978.06;;;19.90;85.16
20710;BME280;10516;51.518;9.864;2023-08-17T02:14:06;98967.38;;;19.85;85.72
20710;BME280;10516;51.518;9.864;2023-08-17T02:16:31;98992.78;;;20.11;84.52
20710;BME280;10516;51.518;9.864;2023-08-17T02:18:57;98973.81;;;19.62;86.46
20710;BME280;10516;51.518;9.864;2023-08-17T02:21:22;98972.88;;;19.80;86.19
20710;BME280;10516;51.518;9.864;2023-08-17T02:23:49;98993.47;;;20.03;85.29
20710;BME280;10516;51.518;9.864;2023-08-17T02:26:14;98968.59;;;19.79;85.84
20710;BME280;10516;51.518;9.864;2023-08-17T02:28:39;98992.34;;;19.82;86.18
20710;BME280;10516;51.518;9.864;2023-08-17T02:31:05;98989.91;;;19.94;86.03
20710;BME280;10516;51.518;9.864;2023-08-17T02:33:33;98970.81;;;19.99;84.99
20710;BME280;10516;51.518;9.864;2023-08-17T02:35:59;99006.81;;;20.13;85.12
20710;BME280;10516;51.518;9.864;2023-08-17T02:38:24;98996.19;;;20.03;85.30
20710;BME280;10516;51.518;9.864;2023-08-17T02:40:49;98966.31;;;19.59;86.58
20710;BME280;10516;51.518;9.864;2023-08-17T02:43:15;98991.53;;;19.81;86.72
20710;BME280;10516;51.518;9.864;2023-08-17T02:45:41;98989.00;;;19.98;85.75
20710;BME280;10516;51.518;9.864;2023-08-17T02:48:08;98988.31;;;19.43;88.42
20710;BME280;10516;51.518;9.864;2023-08-17T02:50:34;98944.47;;;18.87;90.60
20710;BME280;10516;51.518;9.864;2023-08-17T02:52:59;98987.09;;;19.09;90.69
20710;BME280;10516;51.518;9.864;2023-08-17T02:55:25;98982.97;;;18.98;91.71
20710;BME280;10516;51.518;9.864;2023-08-17T02:57:50;98981.47;;;18.78;92.95
20710;BME280;10516;51.518;9.864;2023-08-17T03:00:16;98983.13;;;18.60;93.47
20710;BME280;10516;51.518;9.864;2023-08-17T03:02:41;98982.97;;;18.98;91.97
20710;BME280;10516;51.518;9.864;2023-08-17T03:05:06;98971.63;;;18.82;92.07
20710;BME280;10516;51.518;9.864;2023-08-17T03:07:32;98998.69;;;19.64;87.99
20710;BME280;10516;51.518;9.864;2023-08-17T03:09:57;98978.56;;;19.42;87.97
20710;BME280;10516;51.518;9.864;2023-08-17T03:12:22;98965.03;;;19.02;89.80
20710;BME280;10516;51.518;9.864;2023-08-17T03:14:48;98985.06;;;18.74;93.33
20710;BME280;10516;51.518;9.864;2023-08-17T03:17:13;98989.34;;;18.42;95.65
20710;BME280;10516;51.518;9.864;2023-08-17T03:19:39;98980.19;;;18.57;95.14
20710;BME280;10516;51.518;9.864;2023-08-17T03:22:04;98978.66;;;18.97;91.11
20710;BME280;10516;51.518;9.864;2023-08-17T03:24:29;98971.03;;;18.72;93.92
20710;BME280;10516;51.518;9.864;2023-08-17T03:26:55;98980.97;;;19.44;88.56
20710;BME280;10516;51.518;9.864;2023-08-17T03:29:20;98983.06;;;19.74;86.91
20710;BME280;10516;51.518;9.864;2023-08-17T03:31:45;98976.97;;;19.91;86.12
20710;BME280;10516;51.518;9.864;2023-08-17T03:34:11;98979.66;;;19.28;89.08
20710;BME280;10516;51.518;9.864;2023-08-17T03:36:36;98981.97;;;18.80;92.88
20710;BME280;10516;51.518;9.864;2023-08-17T03:39:02;98966.63;;;18.76;92.28
20710;BME280;10516;51.518;9.864;2023-08-17T03:41:27;98988.59;;;19.42;88.38
20710;BME280;10516;51.518;9.864;2023-08-17T03:43:52;98980.06;;;19.49;87.62
20710;BME280;10516;51.518;9.864;2023-08-17T03:46:18;98973.63;;;18.90;90.65
20710;BME280;10516;51.518;9.864;2023-08-17T03:48:43;98983.47;;;18.86;92.14
20710;BME280;10516;51.518;9.864;2023-08-17T03:51:08;98986.06;;;19.32;89.13
20710;BME280;10516;51.518;9.864;2023-08-17T03:53:34;99008.84;;;19.44;88.18
20710;BME280;10516;51.518;9.864;2023-08-17T03:55:59;98947.00;;;18.84;89.07
20710;BME280;10516;51.518;9.864;2023-08-17T03:58:24;99003.69;;;18.89;91.13
20710;BME280;10516;51.518;9.864;2023-08-17T04:00:52;99006.63;;;18.41;93.76
20710;BME280;10516;51.518;9.864;2023-08-17T04:03:18;99018.75;;;18.30;95.55
20710;BME280;10516;51.518;9.864;2023-08-17T04:05:44;99014.13;;;18.31;95.95
20710;BME280;10516;51.518;9.864;2023-08-17T04:08:10;99002.59;;;18.25;95.40
20710;BME280;10516;51.518;9.864;2023-08-17T04:10:35;99017.63;;;18.31;96.36
20710;BME280;10516;51.518;9.864;2023-08-17T04:13:01;99029.53;;;18.30;97.14
20710;BME280;10516;51.518;9.864;2023-08-17T04:15:26;99035.47;;;18.32;96.93
20710;BME280;10516;51.518;9.864;2023-08-17T04:17:51;98978.44;;;17.96;96.40
20710;BME280;10516;51.518;9.864;2023-08-17T04:20:17;99033.47;;;18.38;96.71
20710;BME280;10516;51.518;9.864;2023-08-17T04:22:44;99024.78;;;17.85;98.81
20710;BME280;10516;51.518;9.864;2023-08-17T04:25:09;99025.38;;;17.82;99.77
20710;BME280;10516;51.518;9.864;2023-08-17T04:27:34;99039.03;;;17.90;99.74
20710;BME280;10516;51.518;9.864;2023-08-17T04:30:00;99045.44;;;18.13;98.15
20710;BME280;10516;51.518;9.864;2023-08-17T04:32:26;99052.84;;;18.08;98.17
20710;BME280;10516;51.518;9.864;2023-08-17T04:34:51;99050.63;;;18.28;97.20
20710;BME280;10516;51.518;9.864;2023-08-17T04:37:16;99044.06;;;18.34;95.59
20710;BME280;10516;51.518;9.864;2023-08-17T04:39:42;99053.50;;;18.00;98.46
20710;BME280;10516;51.518;9.864;2023-08-17T04:42:08;99031.06;;;17.80;98.75
20710;BME280;10516;51.518;9.864;2023-08-17T04:44:34;99040.41;;;18.07;98.27
20710;BME280;10516;51.518;9.864;2023-08-17T04:46:59;99035.59;;;18.41;95.49
20710;BME280;10516;51.518;9.864;2023-08-17T04:49:25;99033.78;;;18.36;95.05
20710;BME280;10516;51.518;9.864;2023-08-17T04:51:51;99042.75;;;18.13;96.95
20710;BME280;10516;51.518;9.864;2023-08-17T04:54:17;99047.38;;;18.13;98.20
20710;BME280;10516;51.518;9.864;2023-08-17T04:56:42;99015.81;;;17.89;98.70
20710;BME280;10516;51.518;9.864;2023-08-17T04:59:08;99012.75;;;17.96;98.76
20710;BME280;10516;51.518;9.864;2023-08-17T05:01:34;99021.94;;;18.14;97.63
20710;BME280;10516;51.518;9.864;2023-08-17T05:03:59;99019.09;;;18.05;97.85
20710;BME280;10516;51.518;9.864;2023-08-17T05:06:24;99025.09;;;18.02;98.10
20710;BME280;10516;51.518;9.864;2023-08-17T05:08:52;99037.72;;;18.07;98.35
20710;BME280;10516;51.518;9.864;2023-08-17T05:11:18;99029.16;;;17.81;99.17
20710;BME280;10516;51.518;9.864;2023-08-17T05:13:43;99017.09;;;17.55;100.00
20710;BME280;10516;51.518;9.864;2023-08-17T05:16:08;99042.53;;;17.72;100.00
20710;BME280;10516;51.518;9.864;2023-08-17T05:18:34;99047.06;;;17.77;100.00
20710;BME280;10516;51.518;9.864;2023-08-17T05:20:59;99037.31;;;17.57;100.00
20710;BME280;10516;51.518;9.864;2023-08-17T05:23:25;99036.91;;;17.69;100.00
20710;BME280;10516;51.518;9.864;2023-08-17T05:25:51;99037.06;;;17.77;100.00
20710;BME280;10516;51.518;9.864;2023-08-17T05:28:16;99028.16;;;17.95;100.00
20710;BME280;10516;51.518;9.864;2023-08-17T05:30:41;99013.00;;;18.00;97.76
20710;BME280;10516;51.518;9.864;2023-08-17T05:33:07;99037.72;;;18.25;96.99
20710;BME280;10516;51.518;9.864;2023-08-17T05:35:32;99036.97;;;18.20;97.56
20710;BME280;10516;51.518;9.864;2023-08-17T05:37:58;99005.63;;;17.86;98.61
20710;BME280;10516;51.518;9.864;2023-08-17T05:40:23;99029.91;;;18.05;98.72
20710;BME280;10516;51.518;9.864;2023-08-17T05:42:48;99018.47;;;17.94;99.28
20710;BME280;10516;51.518;9.864;2023-08-17T05:45:14;99050.22;;;18.21;99.61
20710;BME280;10516;51.518;9.864;2023-08-17T05:47:39;99035.00;;;18.07;99.60
20710;BME280;10516;51.518;9.864;2023-08-17T05:50:05;99019.84;;;17.92;99.78
20710;BME280;10516;51.518;9.864;2023-08-17T05:52:31;99033.91;;;18.26;98.39
20710;BME280;10516;51.518;9.864;2023-08-17T05:54:56;99051.38;;;18.52;96.72
20710;BME280;10516;51.518;9.864;2023-08-17T05:57:22;99041.75;;;18.46;96.27
20710;BME280;10516;51.518;9.864;2023-08-17T05:59:47;99040.56;;;18.98;93.05
20710;BME280;10516;51.518;9.864;2023-08-17T06:02:13;99047.69;;;18.94;93.07
20710;BME280;10516;51.518;9.864;2023-08-17T06:04:38;99032.78;;;19.10;91.78
20710;BME280;10516;51.518;9.864;2023-08-17T06:07:03;99025.66;;;19.01;92.38
20710;BME280;10516;51.518;9.864;2023-08-17T06:09:29;99048.56;;;19.49;90.07
20710;BME280;10516;51.518;9.864;2023-08-17T06:11:54;99045.84;;;19.49;89.98
20710;BME280;10516;51.518;9.864;2023-08-17T06:14:20;99041.66;;;19.43;89.58
20710;BME280;10516;51.518;9.864;2023-08-17T06:16:45;99060.69;;;19.38;90.46
20710;BME280;10516;51.518;9.864;2023-08-17T06:19:10;99046.13;;;19.34;91.05
20710;BME280;10516;51.518;9.864;2023-08-17T06:21:36;99031.41;;;19.54;89.22
20710;BME280;10516;51.518;9.864;2023-08-17T06:24:01;99050.78;;;19.61;89.72
20710;BME280;10516;51.518;9.864;2023-08-17T06:26:27;99061.34;;;19.98;87.65
20710;BME280;10516;51.518;9.864;2023-08-17T06:28:52;99048.81;;;19.88;88.04
20710;BME280;10516;51.518;9.864;2023-08-17T06:31:17;99063.34;;;20.06;87.61
20710;BME280;10516;51.518;9.864;2023-08-17T06:33:43;99061.03;;;19.99;87.50
20710;BME280;10516;51.518;9.864;2023-08-17T06:36:08;99062.69;;;19.87;88.25
20710;BME280;10516;51.518;9.864;2023-08-17T06:38:33;99044.84;;;19.59;90.83
20710;BME280;10516;51.518;9.864;2023-08-17T06:40:59;99045.44;;;19.28;93.98
20710;BME280;10516;51.518;9.864;2023-08-17T06:43:24;99065.59;;;19.77;89.64
20710;BME280;10516;51.518;9.864;2023-08-17T06:45:50;99054.47;;;19.92;88.30
20710;BME280;10516;51.518;9.864;2023-08-17T06:48:15;99037.81;;;19.71;88.78
20710;BME280;10516;51.518;9.864;2023-08-17T06:50:40;99066.03;;;20.19;87.54
20710;BME280;10516;51.518;9.864;2023-08-17T06:53:06;99055.38;;;20.09;87.54
20710;BME280;10516;51.518;9.864;2023-08-17T06:55:31;99065.22;;;20.19;87.40
20710;BME280;10516;51.518;9.864;2023-08-17T06:57:57;99045.56;;;20.13;87.44
20710;BME280;10516;51.518;9.864;2023-08-17T07:00:22;99069.94;;;20.27;87.38
20710;BME280;10516;51.518;9.864;2023-08-17T07:02:48;99069.50;;;20.34;86.94
20710;BME280;10516;51.518;9.864;2023-08-17T07:05:15;99061.38;;;20.34;86.43
20710;BME280;10516;51.518;9.864;2023-08-17T07:07:40;99070.69;;;20.41;86.56
20710;BME280;10516;51.518;9.864;2023-08-17T07:10:06;99060.94;;;20.40;86.02
20710;BME280;10516;51.518;9.864;2023-08-17T07:12:32;99060.59;;;20.33;86.21
20710;BME280;10516;51.518;9.864;2023-08-17T07:14:58;99065.47;;;19.95;88.41
20710;BME280;10516;51.518;9.864;2023-08-17T07:17:23;99074.06;;;20.47;86.06
20710;BME280;10516;51.518;9.864;2023-08-17T07:19:49;99060.72;;;20.50;85.72
20710;BME280;10516;51.518;9.864;2023-08-17T07:22:14;99061.53;;;20.51;85.89
20710;BME280;10516;51.518;9.864;2023-08-17T07:24:41;99056.09;;;20.51;85.83
20710;BME280;10516;51.518;9.864;2023-08-17T07:27:06;99071.31;;;20.38;87.43
20710;BME280;10516;51.518;9.864;2023-08-17T07:29:32;99081.47;;;20.19;89.16
20710;BME280;10516;51.518;9.864;2023-08-17T07:31:57;99067.50;;;20.61;85.62
20710;BME280;10516;51.518;9.864;2023-08-17T07:34:26;99077.50;;;20.74;85.29
20710;BME280;10516;51.518;9.864;2023-08-17T07:36:51;99070.44;;;20.51;86.26
20710;BME280;10516;51.518;9.864;2023-08-17T07:39:17;99062.56;;;20.63;84.62
20710;BME280;10516;51.518;9.864;2023-08-17T07:41:43;99071.31;;;20.82;84.38
20710;BME280;10516;51.518;9.864;2023-08-17T07:44:09;99088.03;;;20.76;85.63
20710;BME280;10516;51.518;9.864;2023-08-17T07:46:34;99084.88;;;20.82;84.82
20710;BME280;10516;51.518;9.864;2023-08-17T07:48:59;99086.69;;;21.09;84.46
20710;BME280;10516;51.518;9.864;2023-08-17T07:51:25;99075.97;;;20.90;85.53
20710;BME280;10516;51.518;9.864;2023-08-17T07:53:50;99079.13;;;20.84;86.17
20710;BME280;10516;51.518;9.864;2023-08-17T07:56:15;99070.56;;;20.90;83.97
20710;BME280;10516;51.518;9.864;2023-08-17T07:58:41;99084.50;;;21.20;83.24
20710;BME280;10516;51.518;9.864;2023-08-17T08:01:06;99093.19;;;21.39;82.42
20710;BME280;10516;51.518;9.864;2023-08-17T08:03:31;99085.25;;;21.12;83.50
20710;BME280;10516;51.518;9.864;2023-08-17T08:05:57;99085.69;;;21.05;84.08
20710;BME280;10516;51.518;9.864;2023-08-17T08:08:22;99088.41;;;21.05;84.01
20710;BME280;10516;51.518;9.864;2023-08-17T08:10:48;99072.97;;;20.48;84.86
20710;BME280;10516;51.518;9.864;2023-08-17T08:13:13;99094.75;;;21.01;84.34
20710;BME280;10516;51.518;9.864;2023-08-17T08:15:39;99079.88;;;20.98;83.57
20710;BME280;10516;51.518;9.864;2023-08-17T08:18:04;99097.22;;;21.11;83.56
20710;BME280;10516;51.518;9.864;2023-08-17T08:20:30;99089.28;;;21.14;82.58
20710;BME280;10516;51.518;9.864;2023-08-17T08:22:55;99102.28;;;21.04;83.96
20710;BME280;10516;51.518;9.864;2023-08-17T08:25:21;99098.84;;;21.42;81.71
20710;BME280;10516;51.518;9.864;2023-08-17T08:27:46;99081.66;;;21.25;82.46
20710;BME280;10516;51.518;9.864;2023-08-17T08:30:11;99087.69;;;21.00;83.74
20710;BME280;10516;51.518;9.864;2023-08-17T08:32:37;99097.69;;;20.90;83.66
20710;BME280;10516;51.518;9.864;2023-08-17T08:35:03;99099.81;;;21.16;83.35
20710;BME280;10516;51.518;9.864;2023-08-17T08:37:28;99094.09;;;21.26;82.81
20710;BME280;10516;51.518;9.864;2023-08-17T08:39:54;99092.06;;;21.31;82.87
20710;BME280;10516;51.518;9.864;2023-08-17T08:42:21;99094.00;;;21.39;82.81
20710;BME280;10516;51.518;9.864;2023-08-17T08:44:47;99091.16;;;21.44;82.47
20710;BME280;10516;51.518;9.864;2023-08-17T08:47:13;99080.69;;;21.21;83.29
20710;BME280;10516;51.518;9.864;2023-08-17T08:49:40;99096.25;;;21.37;84.30
20710;BME280;10516;51.518;9.864;2023-08-17T08:52:13;99094.63;;;21.36;82.97
20710;BME280;10516;51.518;9.864;2023-08-17T08:54:42;99099.34;;;21.53;82.88
20710;BME280;10516;51.518;9.864;2023-08-17T08:57:12;99080.81;;;21.55;81.68
20710;BME280;10516;51.518;9.864;2023-08-17T08:59:39;99084.75;;;21.40;83.50
20710;BME280;10516;51.518;9.864;2023-08-17T09:02:15;99078.16;;;21.72;81.77
20710;BME280;10516;51.518;9.864;2023-08-17T09:04:43;99061.03;;;21.72;81.29
20710;BME280;10516;51.518;9.864;2023-08-17T09:07:10;99088.47;;;21.92;81.38
20710;BME280;10516;51.518;9.864;2023-08-17T09:09:37;99065.91;;;21.92;80.62
20710;BME280;10516;51.518;9.864;2023-08-17T09:12:03;99082.44;;;22.04;80.94
20710;BME280;10516;51.518;9.864;2023-08-17T09:14:29;99064.66;;;21.98;81.33
20710;BME280;10516;51.518;9.864;2023-08-17T09:16:56;99072.03;;;22.14;80.31
20710;BME280;10516;51.518;9.864;2023-08-17T09:19:24;99083.53;;;22.11;80.39
20710;BME280;10516;51.518;9.864;2023-08-17T09:21:49;99066.75;;;22.35;79.73
20710;BME280;10516;51.518;9.864;2023-08-17T09:24:15;99082.13;;;22.39;79.44
20710;BME280;10516;51.518;9.864;2023-08-17T09:26:40;99076.34;;;22.41;78.78
20710;BME280;10516;51.518;9.864;2023-08-17T09:29:19;99064.69;;;22.23;79.33
20710;BME280;10516;51.518;9.864;2023-08-17T09:31:46;99059.06;;;22.28;79.85
20710;BME280;10516;51.518;9.864;2023-08-17T09:34:11;99065.66;;;22.36;79.22
20710;BME280;10516;51.518;9.864;2023-08-17T09:36:39;99061.03;;;22.36;78.93
20710;BME280;10516;51.518;9.864;2023-08-17T09:39:05;99062.44;;;22.34;79.84
20710;BME280;10516;51.518;9.864;2023-08-17T09:41:30;99069.81;;;22.59;78.27
20710;BME280;10516;51.518;9.864;2023-08-17T09:44:03;99055.59;;;22.36;79.04
20710;BME280;10516;51.518;9.864;2023-08-17T09:46:29;99074.63;;;22.54;79.11
20710;BME280;10516;51.518;9.864;2023-08-17T09:48:54;99062.94;;;22.70;77.88
20710;BME280;10516;51.518;9.864;2023-08-17T09:51:20;99071.56;;;22.72;78.08
20710;BME280;10516;51.518;9.864;2023-08-17T09:53:51;99059.72;;;22.68;77.81
20710;BME280;10516;51.518;9.864;2023-08-17T09:56:21;99075.09;;;22.73;78.11
20710;BME280;10516;51.518;9.864;2023-08-17T09:58:47;99070.94;;;22.75;78.50
20710;BME280;10516;51.518;9.864;2023-08-17T10:01:12;99054.75;;;22.79;77.15
20710;BME280;10516;51.518;9.864;2023-08-17T10:03:43;99053.94;;;22.78;77.61
20710;BME280;10516;51.518;9.864;2023-08-17T10:06:12;99068.16;;;23.01;77.55
20710;BME280;10516;51.518;9.864;2023-08-17T10:08:49;99059.78;;;23.15;77.90
20710;BME280;10516;51.518;9.864;2023-08-17T10:11:19;99061.97;;;23.38;76.59
20710;BME280;10516;51.518;9.864;2023-08-17T10:14:04;99068.88;;;23.27;76.09
20710;BME280;10516;51.518;9.864;2023-08-17T10:16:45;99057.97;;;23.27;75.99
20710;BME280;10516;51.518;9.864;2023-08-17T10:21:48;99055.94;;;23.62;74.92
20710;BME280;10516;51.518;9.864;2023-08-17T10:24:16;99051.66;;;23.52;74.82
20710;BME280;10516;51.518;9.864;2023-08-17T10:26:44;99064.78;;;23.50;75.13
20710;BME280;10516;51.518;9.864;2023-08-17T10:29:10;99058.88;;;23.48;74.55
20710;BME280;10516;51.518;9.864;2023-08-17T10:31:37;99058.41;;;23.46;74.71
20710;BME280;10516;51.518;9.864;2023-08-17T10:34:03;99059.84;;;23.44;76.92
20710;BME280;10516;51.518;9.864;2023-08-17T10:36:33;99044.19;;;23.32;75.33
20710;BME280;10516;51.518;9.864;2023-08-17T10:39:25;99044.94;;;23.50;73.78
20710;BME280;10516;51.518;9.864;2023-08-17T10:41:51;99059.16;;;23.55;74.36
20710;BME280;10516;51.518;9.864;2023-08-17T10:44:18;99057.13;;;23.52;74.42
20710;BME280;10516;51.518;9.864;2023-08-17T10:47:22;99058.81;;;23.65;74.63
20710;BME280;10516;51.518;9.864;2023-08-17T10:49:52;99052.03;;;23.42;74.75
20710;BME280;10516;51.518;9.864;2023-08-17T10:54:52;99056.81;;;23.45;74.46
20710;BME280;10516;51.518;9.864;2023-08-17T10:57:25;99065.81;;;23.37;74.31
20710;BME280;10516;51.518;9.864;2023-08-17T11:02:51;99064.53;;;23.43;73.93
20710;BME280;10516;51.518;9.864;2023-08-17T11:08:31;99066.47;;;23.34;74.24
20710;BME280;10516;51.518;9.864;2023-08-17T11:11:04;99051.09;;;23.38;73.51
20710;BME280;10516;51.518;9.864;2023-08-17T11:13:35;99054.34;;;23.61;75.79
20710;BME280;10516;51.518;9.864;2023-08-17T11:16:01;99062.75;;;23.76;72.81
20710;BME280;10516;51.518;9.864;2023-08-17T11:18:27;99055.31;;;23.85;72.11
20710;BME280;10516;51.518;9.864;2023-08-17T11:20:53;99045.91;;;23.74;72.45
20710;BME280;10516;51.518;9.864;2023-08-17T11:23:20;99043.19;;;23.74;72.30
20710;BME280;10516;51.518;9.864;2023-08-17T11:25:45;99046.38;;;23.76;72.52
20710;BME280;10516;51.518;9.864;2023-08-17T11:28:12;99048.31;;;24.05;71.62
20710;BME280;10516;51.518;9.864;2023-08-17T11:30:39;99057.59;;;24.13;71.81
20710;BME280;10516;51.518;9.864;2023-08-17T11:33:06;99056.44;;;24.14;71.86
20710;BME280;10516;51.518;9.864;2023-08-17T11:35:32;99049.25;;;24.09;71.88
20710;BME280;10516;51.518;9.864;2023-08-17T11:37:57;99054.28;;;24.40;70.67
20710;BME280;10516;51.518;9.864;2023-08-17T11:40:24;99056.75;;;24.53;70.90
20710;BME280;10516;51.518;9.864;2023-08-17T11:42:50;99056.09;;;24.56;70.96
20710;BME280;10516;51.518;9.864;2023-08-17T11:45:15;99043.72;;;24.59;70.38
20710;BME280;10516;51.518;9.864;2023-08-17T11:47:41;99052.28;;;24.70;70.42
20710;BME280;10516;51.518;9.864;2023-08-17T11:50:10;99059.22;;;24.67;70.02
20710;BME280;10516;51.518;9.864;2023-08-17T11:52:36;99053.19;;;24.74;70.17
20710;BME280;10516;51.518;9.864;2023-08-17T11:55:04;99039.75;;;24.69;70.09
20710;BME280;10516;51.518;9.864;2023-08-17T11:57:33;99062.06;;;24.91;69.74
20710;BME280;10516;51.518;9.864;2023-08-17T12:00:00;99051.38;;;24.98;69.26
20710;BME280;10516;51.518;9.864;2023-08-17T12:02:27;99059.38;;;25.15;70.71
20710;BME280;10516;51.518;9.864;2023-08-17T12:04:54;99059.84;;;25.29;67.80
20710;BME280;10516;51.518;9.864;2023-08-17T12:07:21;99062.75;;;25.45;68.52
20710;BME280;10516;51.518;9.864;2023-08-17T12:09:48;99044.75;;;25.56;65.89
20710;BME280;10516;51.518;9.864;2023-08-17T12:12:17;99061.25;;;25.48;67.19
20710;BME280;10516;51.518;9.864;2023-08-17T12:14:43;99049.03;;;25.33;67.21
20710;BME280;10516;51.518;9.864;2023-08-17T12:17:19;99039.19;;;25.53;67.87
20710;BME280;10516;51.518;9.864;2023-08-17T12:19:48;99036.75;;;25.87;66.09
20710;BME280;10516;51.518;9.864;2023-08-17T12:22:13;99044.38;;;26.18;64.40
20710;BME280;10516;51.518;9.864;2023-08-17T12:24:39;99040.97;;;25.97;66.08
20710;BME280;10516;51.518;9.864;2023-08-17T12:27:05;99034.84;;;25.52;66.60
20710;BME280;10516;51.518;9.864;2023-08-17T12:29:31;99034.63;;;25.57;67.59
20710;BME280;10516;51.518;9.864;2023-08-17T12:32:03;99037.25;;;25.77;65.80
20710;BME280;10516;51.518;9.864;2023-08-17T12:34:29;99047.13;;;25.82;65.73
20710;BME280;10516;51.518;9.864;2023-08-17T12:36:54;99037.44;;;25.96;65.32
20710;BME280;10516;51.518;9.864;2023-08-17T12:39:20;99039.25;;;26.44;64.26
20710;BME280;10516;51.518;9.864;2023-08-17T12:41:45;99037.88;;;26.78;64.08
20710;BME280;10516;51.518;9.864;2023-08-17T12:44:11;99026.66;;;26.83;63.81
20710;BME280;10516;51.518;9.864;2023-08-17T12:46:42;99034.06;;;27.10;62.76
20710;BME280;10516;51.518;9.864;2023-08-17T12:49:07;99038.53;;;27.03;63.18
20710;BME280;10516;51.518;9.864;2023-08-17T12:51:33;99030.53;;;27.25;61.81
20710;BME280;10516;51.518;9.864;2023-08-17T12:53:58;99030.44;;;27.53;58.66
20710;BME280;10516;51.518;9.864;2023-08-17T12:56:24;99012.84;;;27.54;60.47
20710;BME280;10516;51.518;9.864;2023-08-17T12:58:49;99030.69;;;27.17;62.18
20710;BME280;10516;51.518;9.864;2023-08-17T13:01:14;99032.28;;;27.18;61.80
20710;BME280;10516;51.518;9.864;2023-08-17T13:03:40;99006.00;;;26.86;61.64
20710;BME280;10516;51.518;9.864;2023-08-17T13:06:05;99028.78;;;26.90;62.35
20710;BME280;10516;51.518;9.864;2023-08-17T13:08:31;99009.03;;;26.68;62.58
20710;BME280;10516;51.518;9.864;2023-08-17T13:10:56;99036.06;;;26.70;62.90
20710;BME280;10516;51.518;9.864;2023-08-17T13:13:22;99024.72;;;26.84;62.19